Time;durP1;ratioP1;P1;durP2;ratioP2;P2;SDS_P1;SDS_P2;PMS_P1;PMS_P2;Temp;Humidity;BMP_temperature;BMP_pressure;BME280_temperature;BME280_humidity;BME280_pressure;Samples;Min_cycle;Max_cycle;Signal;HPM_P1;HPM_P2
2023/01/11 00:00:26;;;;;;;20.90;18.90;;;8.70;99.90;;;;;;5061400;28;20058;-47
2023/01/11 00:02:59;;;;;;;21.65;19.40;;;8.80;99.90;;;;;;5096556;28;20055;-46
2023/01/11 00:05:24;;;;;;;21.40;19.23;;;9.00;99.90;;;;;;5097110;28;20082;-47
2023/01/11 00:07:50;;;;;;;20.48;18.38;;;8.80;99.90;;;;;;5078818;28;20501;-48
2023/01/11 00:10:17;;;;;;;20.40;18.38;;;8.90;99.90;;;;;;5096686;28;20053;-49
2023/01/11 00:12:42;;;;;;;22.05;19.63;;;8.90;99.90;;;;;;5096164;28;20083;-49
2023/01/11 00:15:09;;;;;;;20.85;18.15;;;8.80;99.90;;;;;;5096868;28;20192;-47
2023/01/11 00:17:34;;;;;;;20.15;18.17;;;8.80;99.90;;;;;;5096189;28;20047;-48
2023/01/11 00:20:00;;;;;;;19.77;17.77;;;9.00;99.90;;;;;;5095993;28;20082;-47
2023/01/11 00:22:26;;;;;;;21.35;19.17;;;9.10;99.90;;;;;;5096518;28;20051;-46
2023/01/11 00:24:51;;;;;;;21.40;19.00;;;9.10;99.90;;;;;;5097065;28;20048;-47
2023/01/11 00:27:17;;;;;;;19.88;17.83;;;8.90;99.90;;;;;;5097437;28;20567;-47
2023/01/11 00:29:43;;;;;;;20.15;18.15;;;9.20;99.90;;;;;;5097365;28;20416;-46
2023/01/11 00:32:09;;;;;;;19.42;17.42;;;9.10;99.90;;;;;;5096642;28;20047;-47
2023/01/11 00:34:35;;;;;;;17.20;15.50;;;8.90;99.90;;;;;;5096501;28;20440;-48
2023/01/11 00:37:00;;;;;;;17.23;15.52;;;9.20;99.90;;;;;;5078233;28;20063;-47
2023/01/11 00:39:26;;;;;;;18.85;17.05;;;9.00;99.90;;;;;;5077351;28;20122;-46
2023/01/11 00:50:05;;;;;;;18.48;16.27;;;9.10;99.90;;;;;;5095755;28;20054;-48
2023/01/11 00:52:31;;;;;;;17.88;15.98;;;9.30;99.90;;;;;;5095999;28;20052;-47
2023/01/11 00:54:57;;;;;;;17.20;15.43;;;9.30;99.90;;;;;;5096311;28;20491;-50
2023/01/11 00:57:22;;;;;;;16.20;14.52;;;9.10;99.90;;;;;;5096127;28;20051;-50
2023/01/11 00:59:48;;;;;;;18.40;15.68;;;9.20;99.90;;;;;;5095078;28;20523;-49
2023/01/11 01:02:14;;;;;;;18.92;14.98;;;9.20;99.90;;;;;;5096481;28;20052;-48
2023/01/11 01:04:40;;;;;;;16.67;15.05;;;9.20;99.90;;;;;;5096040;28;20630;-46
2023/01/11 01:07:06;;;;;;;16.58;14.43;;;9.20;99.90;;;;;;5077216;28;20135;-47
2023/01/11 01:09:32;;;;;;;16.55;14.95;;;9.20;99.90;;;;;;5095883;28;20575;-47
2023/01/11 01:12:00;;;;;;;16.45;14.80;;;9.30;99.90;;;;;;5095874;28;20049;-49
2023/01/11 01:14:29;;;;;;;16.30;14.50;;;9.30;99.90;;;;;;5095969;28;20052;-48
2023/01/11 01:17:02;;;;;;;15.60;13.93;;;9.40;99.90;;;;;;5077154;28;20680;-47
2023/01/11 01:19:30;;;;;;;16.33;13.57;;;9.40;99.90;;;;;;5095046;28;20099;-48
2023/01/11 01:21:57;;;;;;;15.57;14.07;;;9.40;99.90;;;;;;5095067;28;20500;-47
2023/01/11 01:24:24;;;;;;;15.35;13.68;;;9.40;99.90;;;;;;5095771;28;20059;-49
2023/01/11 01:26:50;;;;;;;13.55;12.15;;;9.60;99.90;;;;;;5077265;28;20051;-51
2023/01/11 01:29:16;;;;;;;15.20;13.45;;;9.40;99.90;;;;;;5095921;28;20051;-47
2023/01/11 01:31:42;;;;;;;18.35;13.98;;;9.50;99.90;;;;;;5095011;28;20047;-48
2023/01/11 01:34:09;;;;;;;13.02;11.73;;;9.60;99.90;;;;;;5095995;28;20086;-48
2023/01/11 01:36:35;;;;;;;13.85;12.00;;;9.70;99.90;;;;;;5095098;28;20043;-48
2023/01/11 01:39:01;;;;;;;14.68;13.27;;;9.50;99.90;;;;;;5095347;28;20046;-48
2023/01/11 01:41:27;;;;;;;15.90;12.35;;;9.80;99.90;;;;;;5094639;28;20122;-51
2023/01/11 01:43:59;;;;;;;13.05;11.10;;;9.60;99.90;;;;;;5095755;28;20087;-49
2023/01/11 01:46:30;;;;;;;13.40;12.02;;;9.80;99.90;;;;;;5095506;28;20108;-51
2023/01/11 01:49:06;;;;;;;15.00;12.15;;;9.60;99.90;;;;;;5077122;28;20083;-47
2023/01/11 01:51:40;;;;;;;14.10;12.00;;;9.80;99.90;;;;;;5074071;28;20879;-48
2023/01/11 01:54:10;;;;;;;15.32;11.65;;;9.70;99.90;;;;;;5076620;28;20047;-48
2023/01/11 01:56:45;;;;;;;13.48;10.40;;;9.70;99.90;;;;;;5094617;28;20048;-47
2023/01/11 01:59:14;;;;;;;12.18;10.27;;;9.80;99.90;;;;;;5094441;28;20108;-48
2023/01/11 02:01:46;;;;;;;11.95;10.80;;;9.70;99.90;;;;;;5094111;28;20062;-49
2023/01/11 02:04:28;;;;;;;12.43;11.13;;;9.70;99.90;;;;;;5095033;28;20126;-50
2023/01/11 02:07:02;;;;;;;11.75;10.43;;;10.00;99.90;;;;;;5094605;28;20047;-48
2023/01/11 02:09:40;;;;;;;8.93;8.10;;;10.00;99.90;;;;;;5094159;28;20051;-49
2023/01/11 02:12:07;;;;;;;9.68;8.13;;;10.00;99.90;;;;;;5094130;28;20054;-48
2023/01/11 02:14:35;;;;;;;9.48;7.97;;;9.80;99.90;;;;;;5095657;28;20074;-51
2023/01/11 02:17:01;;;;;;;10.57;8.45;;;10.00;99.90;;;;;;5094704;28;20044;-49
2023/01/11 02:19:52;;;;;;;8.65;7.85;;;9.90;99.90;;;;;;5078510;28;20136;-51
2023/01/11 02:22:55;;;;;;;9.98;6.88;;;9.80;99.90;;;;;;5080484;28;20063;-51
2023/01/11 02:25:49;;;;;;;10.52;7.00;;;10.10;99.90;;;;;;5099210;28;20051;-49
2023/01/11 02:28:37;;;;;;;6.97;6.25;;;9.90;99.90;;;;;;5099027;28;20051;-50
2023/01/11 02:31:09;;;;;;;6.68;5.55;;;9.90;99.90;;;;;;5098789;28;20062;-50
2023/01/11 02:34:02;;;;;;;6.18;5.55;;;9.90;99.90;;;;;;5079725;28;20062;-48
2023/01/11 02:37:13;;;;;;;6.10;4.50;;;9.90;99.90;;;;;;5099003;28;20051;-51
2023/01/11 02:39:49;;;;;;;5.85;4.80;;;10.20;99.90;;;;;;5014444;28;20531;-51
2023/01/11 02:45:34;;;;;;;6.40;5.00;;;10.00;99.90;;;;;;5015444;28;20136;-48
2023/01/11 02:48:36;;;;;;;5.45;4.10;;;10.00;99.90;;;;;;5014960;28;20049;-48
2023/01/11 02:51:07;;;;;;;5.88;5.10;;;10.20;99.90;;;;;;4959860;28;20161;-50
2023/01/11 02:53:57;;;;;;;6.53;5.18;;;10.10;99.90;;;;;;4975367;28;20549;-49
2023/01/11 02:56:31;;;;;;;5.80;5.20;;;10.20;99.90;;;;;;4975695;28;20249;-50
2023/01/11 02:58:59;;;;;;;7.28;5.15;;;10.20;99.90;;;;;;4975003;28;20133;-50
2023/01/11 03:01:25;;;;;;;6.05;5.28;;;10.30;99.90;;;;;;4967571;28;20641;-49
2023/01/11 03:03:52;;;;;;;7.93;5.85;;;10.10;99.90;;;;;;4967095;28;20265;-50
2023/01/11 03:06:20;;;;;;;8.70;5.95;;;10.10;99.90;;;;;;4973456;28;20086;-49
2023/01/11 03:09:08;;;;;;;8.65;6.00;;;10.30;99.90;;;;;;4974954;28;20070;-48
2023/01/11 03:15:22;;;;;;;7.45;5.80;;;10.30;99.90;;;;;;4974873;28;20104;-51
2023/01/11 03:18:00;;;;;;;7.75;6.10;;;10.40;99.90;;;;;;5034206;28;20049;-48
2023/01/11 03:20:48;;;;;;;10.02;6.47;;;10.30;99.90;;;;;;5020645;28;20114;-51
2023/01/11 03:23:20;;;;;;;9.93;7.22;;;10.10;99.90;;;;;;5033811;28;20536;-49
2023/01/11 03:26:01;;;;;;;9.45;7.22;;;10.10;99.90;;;;;;5040948;28;20056;-52
2023/01/11 03:28:50;;;;;;;12.02;7.55;;;10.20;99.90;;;;;;5096825;28;20040;-52
2023/01/11 03:31:32;;;;;;;12.30;7.53;;;10.10;99.90;;;;;;5097753;28;20051;-49
2023/01/11 03:34:12;;;;;;;13.97;7.73;;;10.20;99.90;;;;;;5098350;28;20443;-48
2023/01/11 03:36:55;;;;;;;16.30;9.25;;;10.30;99.90;;;;;;5097474;28;20343;-50
2023/01/11 03:39:43;;;;;;;17.08;10.02;;;10.30;99.90;;;;;;5096541;28;20052;-50
2023/01/11 03:42:12;;;;;;;17.83;8.23;;;10.20;99.90;;;;;;5096629;28;20058;-49
2023/01/11 03:44:43;;;;;;;17.30;8.13;;;10.20;99.90;;;;;;5097006;28;20047;-52
2023/01/11 03:47:13;;;;;;;20.00;7.70;;;10.20;99.90;;;;;;5097717;28;20044;-51
2023/01/11 03:49:49;;;;;;;18.67;7.63;;;10.20;99.90;;;;;;5096609;28;20425;-51
2023/01/11 03:52:19;;;;;;;20.73;7.85;;;10.20;99.90;;;;;;5097112;28;20051;-49
2023/01/11 03:54:45;;;;;;;24.83;8.30;;;10.20;99.90;;;;;;5096924;28;20044;-48
2023/01/11 03:57:21;;;;;;;23.00;8.48;;;10.10;99.90;;;;;;5097352;28;20569;-48
2023/01/11 03:59:48;;;;;;;23.10;8.20;;;10.20;99.90;;;;;;5096667;28;20043;-51
2023/01/11 04:02:27;;;;;;;18.98;7.88;;;10.20;99.90;;;;;;5097023;28;20398;-48
2023/01/11 04:04:52;;;;;;;26.85;7.00;;;10.10;99.90;;;;;;5078390;28;20047;-47
2023/01/11 04:07:18;;;;;;;22.38;5.97;;;10.20;99.90;;;;;;5097185;28;20443;-48
2023/01/11 04:09:44;;;;;;;27.45;6.65;;;10.20;99.90;;;;;;5096354;28;20574;-49
2023/01/11 04:12:11;;;;;;;25.98;6.07;;;9.90;99.90;;;;;;5095914;28;20680;-47
2023/01/11 04:14:36;;;;;;;32.53;6.53;;;9.90;99.90;;;;;;5096477;28;20051;-48
2023/01/11 04:17:03;;;;;;;35.17;6.72;;;10.00;99.90;;;;;;5096532;28;20413;-48
2023/01/11 04:19:30;;;;;;;28.17;5.85;;;10.00;99.90;;;;;;5095515;28;20109;-50
2023/01/11 04:21:55;;;;;;;22.58;5.90;;;10.10;99.90;;;;;;5095339;28;20055;-50
2023/01/11 04:24:21;;;;;;;41.40;6.63;;;10.10;99.90;;;;;;5097034;28;20043;-50
2023/01/11 04:26:47;;;;;;;29.10;5.72;;;10.10;99.90;;;;;;5096566;28;20057;-49
2023/01/11 04:29:13;;;;;;;42.53;6.55;;;9.90;99.90;;;;;;5077690;28;20040;-49
2023/01/11 04:31:38;;;;;;;38.05;7.38;;;10.10;99.90;;;;;;5095655;28;20082;-49
2023/01/11 04:34:04;;;;;;;34.67;6.35;;;10.10;99.90;;;;;;5096598;28;20044;-48
2023/01/11 04:36:30;;;;;;;39.17;7.20;;;9.80;99.90;;;;;;5095507;28;20047;-48
2023/01/11 04:38:59;;;;;;;29.38;6.03;;;10.00;99.90;;;;;;5095828;28;20051;-49
2023/01/11 04:44:09;;;;;;;36.28;6.50;;;10.10;99.90;;;;;;5096505;28;20059;-48
2023/01/11 04:46:35;;;;;;;34.85;5.72;;;9.90;99.90;;;;;;5096151;28;20081;-49
2023/01/11 04:49:01;;;;;;;33.50;6.97;;;10.00;99.90;;;;;;5077260;28;20039;-50
2023/01/11 04:51:27;;;;;;;35.72;5.65;;;9.80;99.90;;;;;;5094983;28;20494;-48
2023/01/11 04:53:52;;;;;;;37.13;6.30;;;10.00;99.90;;;;;;5097103;28;20054;-48
2023/01/11 04:56:18;;;;;;;26.77;6.72;;;10.00;99.90;;;;;;5095756;28;20051;-50
2023/01/11 04:58:45;;;;;;;30.02;5.60;;;9.80;99.90;;;;;;5077709;28;20056;-49
2023/01/11 05:01:14;;;;;;;36.30;5.80;;;10.00;99.90;;;;;;5093823;28;20043;-50
2023/01/11 05:03:40;;;;;;;28.27;5.32;;;9.80;99.90;;;;;;5076739;28;20047;-47
2023/01/11 05:06:06;;;;;;;29.05;5.68;;;9.80;99.90;;;;;;5093998;28;20534;-50
2023/01/11 05:08:32;;;;;;;30.88;5.85;;;9.90;99.90;;;;;;5095715;28;20135;-51
2023/01/11 05:11:03;;;;;;;25.77;5.35;;;9.90;99.90;;;;;;5094905;28;20051;-47
2023/01/11 05:13:41;;;;;;;35.30;5.70;;;10.00;99.90;;;;;;5096190;28;20051;-48
2023/01/11 05:16:08;;;;;;;31.63;5.97;;;9.80;99.90;;;;;;5096015;28;20048;-50
2023/01/11 05:18:34;;;;;;;31.23;5.13;;;9.90;99.90;;;;;;5095269;28;20103;-50
2023/01/11 05:21:00;;;;;;;35.63;6.13;;;10.00;99.90;;;;;;5094313;28;20051;-49
2023/01/11 05:23:26;;;;;;;25.20;5.45;;;9.80;99.90;;;;;;5095327;28;20047;-47
2023/01/11 05:25:52;;;;;;;30.67;5.07;;;9.80;99.90;;;;;;5095115;28;20190;-50
2023/01/11 05:28:17;;;;;;;34.63;5.05;;;9.80;99.90;;;;;;5095247;28;20043;-50
2023/01/11 05:30:49;;;;;;;39.85;6.22;;;10.00;99.90;;;;;;5060404;28;20500;-49
2023/01/11 05:33:14;;;;;;;32.15;5.80;;;9.90;99.90;;;;;;5094890;28;20047;-49
2023/01/11 05:35:40;;;;;;;25.17;5.30;;;9.60;99.90;;;;;;5095211;28;20528;-52
2023/01/11 05:38:06;;;;;;;30.65;5.40;;;9.80;99.90;;;;;;5094879;28;20083;-47
2023/01/11 05:40:31;;;;;;;29.58;4.93;;;9.60;99.90;;;;;;5077111;28;20134;-49
2023/01/11 05:42:57;;;;;;;36.13;6.78;;;9.60;99.90;;;;;;5094217;28;20079;-47
2023/01/11 05:45:28;;;;;;;26.63;4.43;;;9.60;99.90;;;;;;5077010;28;20055;-49
2023/01/11 05:47:54;;;;;;;24.15;4.38;;;9.40;99.90;;;;;;5094192;28;20039;-49
2023/01/11 05:50:20;;;;;;;27.52;5.13;;;9.40;99.90;;;;;;5094346;28;20067;-47
2023/01/11 05:52:46;;;;;;;34.55;5.20;;;9.50;99.90;;;;;;5093646;28;20055;-50
2023/01/11 05:55:11;;;;;;;25.45;5.25;;;9.30;99.90;;;;;;5095037;28;20395;-51
2023/01/11 05:57:40;;;;;;;25.75;5.05;;;9.40;99.90;;;;;;5093907;28;20353;-50
2023/01/11 06:00:07;;;;;;;23.20;4.80;;;9.20;99.90;;;;;;5095213;28;20047;-48
2023/01/11 06:02:36;;;;;;;30.15;5.25;;;9.50;99.90;;;;;;5076047;28;20703;-50
2023/01/11 06:05:03;;;;;;;25.00;4.72;;;9.40;99.90;;;;;;5095315;28;20123;-47
2023/01/11 06:07:28;;;;;;;27.67;5.82;;;9.50;99.90;;;;;;5094593;28;20185;-48
2023/01/11 06:09:54;;;;;;;26.52;4.63;;;9.50;99.90;;;;;;5094145;28;20134;-52
2023/01/11 06:12:20;;;;;;;22.83;4.65;;;9.40;99.90;;;;;;5093850;28;20147;-49
2023/01/11 06:14:45;;;;;;;25.30;5.13;;;9.20;99.90;;;;;;5095031;28;20500;-48
2023/01/11 06:17:11;;;;;;;25.30;3.92;;;9.40;99.90;;;;;;5095207;28;20498;-49
2023/01/11 06:19:37;;;;;;;26.73;5.07;;;9.30;99.90;;;;;;5094285;28;20100;-51
2023/01/11 06:22:02;;;;;;;28.17;5.03;;;9.40;99.90;;;;;;5093940;28;20520;-47
2023/01/11 06:24:28;;;;;;;27.35;4.30;;;9.40;99.90;;;;;;5094247;28;20617;-47
2023/01/11 06:26:54;;;;;;;22.00;3.88;;;9.10;99.90;;;;;;5094296;28;20055;-48
2023/01/11 06:29:20;;;;;;;23.63;4.00;;;9.10;99.90;;;;;;5093716;28;20405;-47
2023/01/11 06:31:46;;;;;;;19.83;4.53;;;9.30;99.90;;;;;;5094231;28;20549;-48
2023/01/11 06:34:11;;;;;;;21.33;4.07;;;9.00;99.90;;;;;;5094984;28;20130;-48
2023/01/11 06:36:37;;;;;;;26.63;3.95;;;9.00;99.90;;;;;;5094679;28;20361;-48
2023/01/11 06:39:04;;;;;;;22.17;4.05;;;9.00;99.90;;;;;;5094882;28;20135;-47
2023/01/11 06:41:29;;;;;;;27.00;4.90;;;8.80;99.90;;;;;;5093840;28;20571;-47
2023/01/11 06:43:55;;;;;;;24.55;4.47;;;8.80;99.90;;;;;;5094523;28;20063;-48
2023/01/11 06:46:21;;;;;;;29.42;4.78;;;8.60;99.90;;;;;;5076121;28;20486;-47
2023/01/11 06:48:47;;;;;;;29.75;4.43;;;8.60;99.90;;;;;;5076209;28;20055;-49
2023/01/11 06:51:14;;;;;;;27.17;3.95;;;8.60;99.90;;;;;;5054663;28;20124;-49
2023/01/11 06:53:41;;;;;;;26.08;4.80;;;8.50;99.90;;;;;;5094588;28;20166;-48
2023/01/11 06:56:11;;;;;;;23.13;4.53;;;8.40;99.90;;;;;;5093671;28;20126;-47
2023/01/11 06:58:37;;;;;;;22.58;4.50;;;8.30;99.90;;;;;;5093625;28;20059;-48
2023/01/11 07:01:03;;;;;;;16.92;3.78;;;8.30;99.90;;;;;;5093781;28;20514;-47
2023/01/11 07:03:28;;;;;;;27.85;5.28;;;8.30;99.90;;;;;;5094282;28;20051;-47
2023/01/11 07:05:56;;;;;;;27.63;4.50;;;8.20;99.90;;;;;;5097932;28;20079;-47
2023/01/11 07:08:22;;;;;;;25.50;4.50;;;8.10;99.90;;;;;;5069797;28;20051;-47
2023/01/11 07:10:48;;;;;;;26.63;4.45;;;8.10;99.90;;;;;;5093896;28;20047;-49
2023/01/11 07:13:16;;;;;;;26.27;5.20;;;8.00;99.90;;;;;;5098835;28;20566;-48
2023/01/11 07:15:43;;;;;;;22.05;4.55;;;8.00;99.90;;;;;;5097795;28;20401;-48
2023/01/11 07:18:10;;;;;;;23.20;4.18;;;8.00;99.90;;;;;;5097428;28;20048;-48
2023/01/11 07:20:36;;;;;;;25.58;4.75;;;8.10;99.90;;;;;;5097485;28;20498;-47
2023/01/11 07:23:02;;;;;;;23.27;3.97;;;8.00;99.90;;;;;;5097338;28;20063;-48
2023/01/11 07:25:29;;;;;;;20.17;4.53;;;8.00;99.90;;;;;;5097816;28;20052;-49
2023/01/11 07:27:59;;;;;;;18.15;3.60;;;8.10;99.90;;;;;;5097556;28;20056;-46
2023/01/11 07:30:26;;;;;;;21.65;3.90;;;8.10;99.90;;;;;;5097375;28;20055;-47
2023/01/11 07:32:52;;;;;;;26.40;3.85;;;8.20;99.90;;;;;;5097250;28;20127;-46
2023/01/11 07:35:18;;;;;;;22.83;3.35;;;8.20;99.90;;;;;;5097858;28;20096;-48
2023/01/11 07:37:44;;;;;;;17.15;2.72;;;8.10;99.90;;;;;;5097461;28;20047;-51
2023/01/11 07:40:11;;;;;;;21.17;3.67;;;8.40;99.90;;;;;;5097699;28;20135;-47
2023/01/11 07:45:21;;;;;;;17.02;3.45;;;8.30;99.90;;;;;;5097882;28;20112;-48
2023/01/11 07:47:50;;;;;;;17.52;3.35;;;8.20;99.90;;;;;;5096402;28;20538;-47
2023/01/11 07:50:16;;;;;;;15.02;2.63;;;8.30;99.90;;;;;;5086346;28;20043;-46
2023/01/11 07:52:49;;;;;;;16.98;3.00;;;8.40;99.90;;;;;;5096619;28;20050;-47
2023/01/11 07:55:15;;;;;;;12.95;2.60;;;8.40;99.90;;;;;;5096735;28;20122;-47
2023/01/11 07:57:41;;;;;;;21.73;3.13;;;8.30;99.90;;;;;;5095776;28;20055;-49
2023/01/11 08:00:08;;;;;;;14.20;2.78;;;8.30;99.90;;;;;;5095962;28;20045;-48
2023/01/11 08:02:34;;;;;;;12.32;2.47;;;8.40;99.90;;;;;;5096129;28;20062;-48
2023/01/11 08:04:59;;;;;;;17.42;2.92;;;8.40;99.90;;;;;;5097287;28;20048;-47
2023/01/11 08:07:25;;;;;;;15.50;3.10;;;8.40;99.90;;;;;;5095359;28;20043;-50
2023/01/11 08:09:51;;;;;;;14.38;2.28;;;8.20;99.90;;;;;;5077597;28;20510;-46
2023/01/11 08:15:01;;;;;;;9.95;2.47;;;8.20;99.90;;;;;;5095808;28;20120;-48
2023/01/11 08:17:26;;;;;;;13.10;2.70;;;8.20;99.90;;;;;;5076100;28;20048;-48
2023/01/11 08:19:54;;;;;;;13.35;2.30;;;8.10;99.90;;;;;;5095911;28;20050;-48
2023/01/11 08:22:20;;;;;;;13.88;2.92;;;8.10;99.90;;;;;;5094774;28;20107;-47
2023/01/11 08:24:46;;;;;;;10.77;2.47;;;8.10;99.90;;;;;;5096407;28;20430;-49
2023/01/11 08:27:12;;;;;;;14.10;2.35;;;8.20;99.90;;;;;;5096646;28;20047;-48
2023/01/11 08:29:38;;;;;;;15.30;3.45;;;8.10;99.90;;;;;;5076223;28;20516;-48
2023/01/11 08:32:05;;;;;;;15.35;3.05;;;8.10;99.90;;;;;;5075142;28;20047;-47
2023/01/11 08:34:30;;;;;;;11.48;2.50;;;8.10;99.90;;;;;;5096446;28;20047;-47
2023/01/11 08:36:56;;;;;;;14.75;3.45;;;8.00;99.90;;;;;;5096706;28;20100;-47
2023/01/11 08:39:23;;;;;;;15.30;2.63;;;8.00;99.90;;;;;;5096293;28;20549;-48
2023/01/11 08:41:49;;;;;;;15.15;2.63;;;7.90;99.90;;;;;;5095574;28;20060;-47
2023/01/11 08:44:15;;;;;;;16.50;2.83;;;8.00;99.90;;;;;;5096982;28;20054;-47
2023/01/11 08:46:42;;;;;;;10.52;2.35;;;7.90;99.90;;;;;;5096807;28;20070;-48
2023/01/11 08:49:11;;;;;;;12.27;2.22;;;7.90;99.90;;;;;;5078060;28;20051;-46
2023/01/11 08:51:39;;;;;;;10.82;2.28;;;8.00;99.90;;;;;;5076929;28;20055;-48
2023/01/11 08:54:08;;;;;;;10.20;1.98;;;7.90;99.90;;;;;;5096332;28;20055;-47
2023/01/11 08:56:35;;;;;;;13.93;2.80;;;7.80;99.90;;;;;;5095763;28;20514;-46
2023/01/11 08:59:02;;;;;;;12.00;2.63;;;7.80;99.90;;;;;;5076438;28;20055;-48
2023/01/11 09:01:28;;;;;;;13.07;2.63;;;7.80;99.90;;;;;;5076875;28;20059;-46
2023/01/11 09:03:54;;;;;;;17.90;2.47;;;7.90;99.90;;;;;;5095978;28;20238;-47
2023/01/11 09:06:20;;;;;;;11.48;2.75;;;7.90;99.90;;;;;;5094698;28;20047;-48
2023/01/11 09:08:46;;;;;;;13.13;2.70;;;7.90;99.90;;;;;;5094710;28;20550;-47
2023/01/11 09:13:57;;;;;;;13.68;2.67;;;8.00;99.90;;;;;;5091245;28;20120;-48
2023/01/11 09:16:23;;;;;;;12.77;2.97;;;8.00;99.90;;;;;;5092027;28;20520;-48
2023/01/11 09:18:48;;;;;;;11.32;2.08;;;7.90;99.90;;;;;;5092865;28;20512;-47
2023/01/11 09:21:14;;;;;;;13.18;2.60;;;8.00;99.90;;;;;;5094131;28;20036;-47
2023/01/11 09:23:40;;;;;;;15.50;3.00;;;8.00;99.90;;;;;;5094377;28;20381;-47
2023/01/11 09:26:06;;;;;;;18.65;4.05;;;7.90;99.90;;;;;;5094099;28;20430;-47
2023/01/11 09:28:31;;;;;;;11.75;2.28;;;8.00;99.90;;;;;;5093738;28;20205;-47
2023/01/11 09:30:57;;;;;;;14.23;3.10;;;8.10;99.90;;;;;;5094487;28;20092;-49
2023/01/11 09:33:23;;;;;;;17.02;3.17;;;8.00;99.90;;;;;;5094693;28;20051;-47
2023/01/11 09:35:50;;;;;;;11.70;2.92;;;8.10;99.90;;;;;;5076672;28;20071;-50
2023/01/11 09:38:17;;;;;;;15.68;3.13;;;8.00;99.90;;;;;;5095186;28;20208;-48
2023/01/11 09:40:59;;;;;;;14.90;2.75;;;8.10;99.90;;;;;;5094747;28;20173;-47
2023/01/11 09:43:27;;;;;;;15.13;2.70;;;8.00;99.90;;;;;;5094946;28;20130;-47
2023/01/11 09:45:56;;;;;;;14.18;3.00;;;8.20;99.90;;;;;;5095078;28;20047;-47
2023/01/11 09:48:35;;;;;;;18.90;3.17;;;8.10;99.90;;;;;;5094116;28;20051;-47
2023/01/11 09:51:01;;;;;;;20.60;2.88;;;8.00;99.90;;;;;;5093935;28;20472;-50
2023/01/11 09:53:33;;;;;;;20.42;4.07;;;8.10;99.90;;;;;;5094755;28;20100;-47
2023/01/11 09:56:02;;;;;;;16.85;3.17;;;8.10;99.90;;;;;;5077161;28;20043;-47
2023/01/11 09:58:55;;;;;;;23.40;4.20;;;8.20;99.90;;;;;;5077378;28;20170;-46
2023/01/11 10:01:30;;;;;;;17.25;3.75;;;8.10;99.90;;;;;;5094244;28;20039;-49
2023/01/11 10:04:08;;;;;;;21.10;4.88;;;8.30;99.90;;;;;;5095206;28;20071;-49
2023/01/11 10:06:50;;;;;;;20.63;3.75;;;8.20;99.90;;;;;;5095213;28;20050;-47
2023/01/11 10:09:31;;;;;;;24.77;4.65;;;8.40;99.90;;;;;;5094189;28;20128;-50
2023/01/11 10:12:33;;;;;;;23.33;4.18;;;8.30;99.90;;;;;;5094357;28;20043;-48
2023/01/11 10:15:24;;;;;;;28.85;4.30;;;8.40;99.90;;;;;;5094721;28;20463;-48
2023/01/11 10:18:25;;;;;;;18.90;3.95;;;8.30;99.90;;;;;;5093807;28;20050;-49
2023/01/11 10:21:04;;;;;;;23.98;5.15;;;8.50;99.90;;;;;;5093883;28;20573;-47
2023/01/11 10:23:49;;;;;;;26.63;4.75;;;8.40;99.90;;;;;;5094368;28;20177;-47
2023/01/11 10:26:27;;;;;;;20.63;4.15;;;8.40;99.90;;;;;;5095468;28;20043;-47
2023/01/11 10:37:47;;;;;;;22.40;4.90;;;8.60;99.90;;;;;;5081118;28;20088;-48
2023/01/11 10:41:01;;;;;;;25.13;4.45;;;8.60;99.90;;;;;;5095398;28;20141;-47
2023/01/11 10:43:24;;;;;;;22.77;4.10;;;8.60;99.90;;;;;;5085025;28;20051;-47
2023/01/11 10:45:59;;;;;;;23.60;4.47;;;8.60;99.90;;;;;;5096522;28;20549;-47
2023/01/11 10:48:43;;;;;;;28.30;4.93;;;8.60;99.90;;;;;;5083760;28;20044;-48
2023/01/11 10:51:29;;;;;;;20.10;3.83;;;8.60;99.90;;;;;;5093817;28;20047;-47
2023/01/11 10:54:12;;;;;;;18.10;4.60;;;8.60;99.90;;;;;;5088775;28;20044;-46
2023/01/11 10:56:50;;;;;;;17.20;4.18;;;8.60;99.90;;;;;;5094810;28;20493;-47
2023/01/11 10:59:54;;;;;;;17.30;4.53;;;8.70;99.90;;;;;;5096677;28;20243;-48
2023/01/11 11:02:32;;;;;;;;;;;8.70;99.90;;;;;;5085534;28;20048;-48
2023/01/11 11:05:32;;;;;;;21.17;4.57;;;8.60;99.90;;;;;;5077794;28;20293;-47
2023/01/11 11:08:00;;;;;;;24.10;4.40;;;8.60;99.90;;;;;;5059879;28;20036;-47
2023/01/11 11:10:55;;;;;;;24.40;4.15;;;8.70;99.90;;;;;;5089320;28;20040;-47
2023/01/11 11:13:54;;;;;;;20.50;4.13;;;8.60;99.90;;;;;;5090121;28;20036;-48
2023/01/11 11:16:22;;;;;;;17.65;3.95;;;8.70;99.90;;;;;;5087482;28;20040;-48
2023/01/11 11:18:50;;;;;;;21.38;3.80;;;8.70;99.90;;;;;;5079555;28;20440;-49
2023/01/11 11:21:30;;;;;;;20.42;3.03;;;8.70;99.90;;;;;;5077793;28;20055;-48
2023/01/11 11:24:18;;;;;;;20.48;5.00;;;8.80;99.90;;;;;;5093062;28;20043;-47
2023/01/11 11:26:48;;;;;;;22.25;5.75;;;8.70;99.90;;;;;;5083292;28;20067;-49
2023/01/11 11:29:21;;;;;;;27.67;5.15;;;8.80;99.90;;;;;;5065587;28;20131;-48
2023/01/11 11:31:48;;;;;;;25.08;4.75;;;8.80;99.90;;;;;;5082994;28;20036;-48
2023/01/11 11:34:19;;;;;;;27.30;4.85;;;8.80;99.90;;;;;;5096910;28;20363;-48
2023/01/11 11:36:48;;;;;;;22.92;4.03;;;8.80;99.90;;;;;;5096645;28;20467;-48
2023/01/11 11:39:28;;;;;;;16.50;4.30;;;8.80;99.90;;;;;;5068057;28;20433;-47
2023/01/11 11:41:56;;;;;;;25.90;4.10;;;8.90;99.90;;;;;;5092746;28;20040;-48
2023/01/11 11:44:23;;;;;;;14.20;4.45;;;8.80;99.90;;;;;;5077865;28;20032;-47
2023/01/11 11:46:56;;;;;;;25.80;4.68;;;8.90;99.90;;;;;;5083941;28;20092;-47
2023/01/11 11:49:22;;;;;;;;;;;8.90;99.90;;;;;;5085814;28;20036;-49
2023/01/11 11:51:50;;;;;;;22.80;3.50;;;8.90;99.90;;;;;;5070027;28;19927;-49
2023/01/11 11:54:21;;;;;;;26.60;4.57;;;8.90;99.90;;;;;;5078489;28;20135;-48
2023/01/11 11:56:48;;;;;;;25.13;4.47;;;8.90;99.90;;;;;;5090275;28;20553;-46
2023/01/11 11:59:17;;;;;;;21.33;5.22;;;8.90;99.90;;;;;;5090435;28;20044;-49
2023/01/11 12:01:47;;;;;;;21.05;4.43;;;8.90;99.90;;;;;;5088119;28;20036;-47
2023/01/11 12:04:14;;;;;;;29.13;5.35;;;8.90;99.90;;;;;;5080638;28;20040;-49
2023/01/11 12:06:41;;;;;;;21.60;4.88;;;8.90;99.90;;;;;;5095095;28;20489;-50
2023/01/11 12:09:30;;;;;;;22.50;4.90;;;9.00;99.90;;;;;;5083998;28;20051;-47
2023/01/11 12:11:56;;;;;;;20.77;4.10;;;9.00;99.90;;;;;;5082897;28;20392;-48
2023/01/11 12:14:29;;;;;;;22.38;4.05;;;9.10;99.90;;;;;;5094845;28;20047;-47
2023/01/11 12:16:56;;;;;;;23.35;4.20;;;9.10;99.90;;;;;;5084978;28;20472;-48
2023/01/11 12:19:44;;;;;;;19.65;4.85;;;9.00;99.90;;;;;;5089566;28;20051;-47
2023/01/11 12:22:20;;;;;;;19.67;4.55;;;9.10;99.90;;;;;;5089984;28;20132;-47
2023/01/11 12:24:47;;;;;;;26.30;5.43;;;9.20;99.90;;;;;;5086266;28;20310;-48
2023/01/11 12:27:20;;;;;;;22.35;4.57;;;9.30;99.90;;;;;;5063201;28;20559;-47
2023/01/11 12:29:58;;;;;;;26.85;4.60;;;9.30;99.90;;;;;;5079940;28;20067;-47
2023/01/11 12:33:01;;;;;;;24.52;4.80;;;9.40;99.90;;;;;;5081732;28;20047;-48
2023/01/11 12:36:00;;;;;;;24.20;4.40;;;9.60;99.90;;;;;;5072303;28;20508;-48
2023/01/11 12:38:38;;;;;;;20.00;4.47;;;9.80;99.90;;;;;;5071692;28;20448;-47
2023/01/11 12:41:42;;;;;;;26.50;5.07;;;9.80;99.90;;;;;;5086204;28;20382;-47
2023/01/11 12:44:27;;;;;;;;;;;9.80;99.90;;;;;;5076863;28;20753;-47
2023/01/11 12:47:10;;;;;;;31.15;5.55;;;9.90;99.90;;;;;;5090096;28;19927;-48
2023/01/11 12:49:43;;;;;;;22.83;4.40;;;9.80;99.90;;;;;;5090241;28;20051;-48
2023/01/11 12:52:30;;;;;;;29.10;5.07;;;9.80;99.90;;;;;;5059037;28;20661;-48
2023/01/11 12:55:35;;;;;;;28.52;5.60;;;9.70;99.90;;;;;;5090778;28;20048;-48
2023/01/11 12:58:15;;;;;;;24.42;5.20;;;9.60;99.90;;;;;;5084866;28;20131;-48
2023/01/11 13:00:59;;;;;;;26.23;6.40;;;9.50;99.90;;;;;;5069815;28;20420;-47
2023/01/11 13:03:34;;;;;;;26.73;5.10;;;9.50;99.90;;;;;;5094339;28;20394;-47
2023/01/11 13:06:05;;;;;;;26.55;6.20;;;9.40;99.90;;;;;;5095273;28;20112;-49
2023/01/11 13:08:43;;;;;;;27.77;5.97;;;9.40;99.90;;;;;;5084599;28;20097;-46
2023/01/11 13:11:33;;;;;;;33.10;6.03;;;9.30;99.90;;;;;;5081137;28;20040;-47
2023/01/11 13:14:29;;;;;;;26.75;5.45;;;9.30;99.90;;;;;;5063256;28;20062;-48
2023/01/11 13:16:55;;;;;;;33.63;5.28;;;9.40;99.90;;;;;;5091028;28;20046;-47
2023/01/11 13:19:33;;;;;;;28.75;5.32;;;9.40;99.90;;;;;;5089116;28;20040;-48
2023/01/11 13:22:03;;;;;;;21.60;4.70;;;9.40;99.90;;;;;;5076069;28;20511;-47
2023/01/11 13:24:31;;;;;;;24.50;4.78;;;9.40;99.90;;;;;;5089227;28;20044;-50
2023/01/11 13:27:06;;;;;;;28.02;5.25;;;9.30;99.90;;;;;;5088565;28;20035;-48
2023/01/11 13:29:36;;;;;;;24.60;4.43;;;9.20;99.90;;;;;;5067941;28;20131;-47
2023/01/11 13:32:12;;;;;;;26.20;5.82;;;9.20;99.90;;;;;;5089984;28;20170;-46
2023/01/11 13:35:02;;;;;;;20.33;4.15;;;9.20;99.90;;;;;;5083737;28;20470;-47
2023/01/11 13:37:49;;;;;;;23.65;5.40;;;9.10;99.90;;;;;;5080594;28;20036;-48
2023/01/11 13:40:40;;;;;;;28.02;6.05;;;9.00;99.90;;;;;;5081308;28;20185;-47
2023/01/11 13:43:29;;;;;;;17.92;4.15;;;9.00;99.90;;;;;;5094147;28;20452;-47